sensor_id;sensor_type;location;lat;lon;timestamp;temperature;humidity
21481;DHT22;10902;48.158;8.634;2023-06-14T00:01:47;9.70;99.90
21481;DHT22;10902;48.158;8.634;2023-06-14T00:04:32;9.80;99.90
21481;DHT22;10902;48.158;8.634;2023-06-14T00:07:20;9.70;99.90
21481;DHT22;10902;48.158;8.634;2023-06-14T00:10:10;9.70;99.90
21481;DHT22;10902;48.158;8.634;2023-06-14T00:12:56;9.80;99.90
21481;DHT22;10902;48.158;8.634;2023-06-14T00:15:42;9.80;99.90
21481;DHT22;10902;48.158;8.634;2023-06-14T00:18:28;9.90;99.90
21481;DHT22;10902;48.158;8.634;2023-06-14T00:21:15;9.90;99.90
21481;DHT22;10902;48.158;8.634;2023-06-14T00:24:01;9.80;99.90
21481;DHT22;10902;48.158;8.634;2023-06-14T00:26:47;9.60;99.90
21481;DHT22;10902;48.158;8.634;2023-06-14T00:29:32;9.40;99.90
21481;DHT22;10902;48.158;8.634;2023-06-14T00:32:18;9.30;99.90
21481;DHT22;10902;48.158;8.634;2023-06-14T00:35:04;9.20;99.90
21481;DHT22;10902;48.158;8.634;2023-06-14T00:37:50;9.10;99.90
21481;DHT22;10902;48.158;8.634;2023-06-14T00:40:35;9.00;99.90
21481;DHT22;10902;48.158;8.634;2023-06-14T00:43:21;8.80;99.90
21481;DHT22;10902;48.158;8.634;2023-06-14T00:46:06;8.70;99.90
21481;DHT22;10902;48.158;8.634;2023-06-14T00:48:52;8.60;99.90
21481;DHT22;10902;48.158;8.634;2023-06-14T00:51:38;8.50;99.90
21481;DHT22;10902;48.158;8.634;2023-06-14T00:54:24;8.50;99.90
21481;DHT22;10902;48.158;8.634;2023-06-14T00:57:11;8.50;99.90
21481;DHT22;10902;48.158;8.634;2023-06-14T00:59:57;8.50;99.90
21481;DHT22;10902;48.158;8.634;2023-06-14T01:02:43;8.50;99.90
21481;DHT22;10902;48.158;8.634;2023-06-14T01:05:29;8.50;99.90
21481;DHT22;10902;48.158;8.634;2023-06-14T01:08:25;8.50;99.90
21481;DHT22;10902;48.158;8.634;2023-06-14T01:11:28;8.50;99.90
21481;DHT22;10902;48.158;8.634;2023-06-14T01:14:17;8.50;99.90
21481;DHT22;10902;48.158;8.634;2023-06-14T01:17:03;8.40;99.90
21481;DHT22;10902;48.158;8.634;2023-06-14T01:19:51;8.30;99.90
21481;DHT22;10902;48.158;8.634;2023-06-14T01:22:53;8.30;99.90
21481;DHT22;10902;48.158;8.634;2023-06-14T01:25:39;8.20;99.90
21481;DHT22;10902;48.158;8.634;2023-06-14T01:28:27;8.10;99.90
21481;DHT22;10902;48.158;8.634;2023-06-14T01:31:19;8.10;99.90
21481;DHT22;10902;48.158;8.634;2023-06-14T01:34:07;7.90;99.90
21481;DHT22;10902;48.158;8.634;2023-06-14T01:36:54;7.80;99.90
21481;DHT22;10902;48.158;8.634;2023-06-14T01:39:43;7.60;99.90
21481;DHT22;10902;48.158;8.634;2023-06-14T01:42:28;7.50;99.90
21481;DHT22;10902;48.158;8.634;2023-06-14T01:45:15;7.40;99.90
21481;DHT22;10902;48.158;8.634;2023-06-14T01:48:02;7.60;99.90
21481;DHT22;10902;48.158;8.634;2023-06-14T01:50:49;7.40;99.90
21481;DHT22;10902;48.158;8.634;2023-06-14T01:53:35;7.20;99.90
21481;DHT22;10902;48.158;8.634;2023-06-14T01:56:21;7.10;99.90
21481;DHT22;10902;48.158;8.634;2023-06-14T01:59:07;7.00;99.90
21481;DHT22;10902;48.158;8.634;2023-06-14T02:01:53;6.80;99.90
21481;DHT22;10902;48.158;8.634;2023-06-14T02:04:38;7.20;99.90
21481;DHT22;10902;48.158;8.634;2023-06-14T02:07:24;7.40;99.90
21481;DHT22;10902;48.158;8.634;2023-06-14T02:10:09;7.30;99.90
21481;DHT22;10902;48.158;8.634;2023-06-14T02:12:55;7.10;99.90
21481;DHT22;10902;48.158;8.634;2023-06-14T02:15:41;7.00;99.90
21481;DHT22;10902;48.158;8.634;2023-06-14T02:18:29;6.80;99.90
21481;DHT22;10902;48.158;8.634;2023-06-14T02:21:15;6.60;99.90
21481;DHT22;10902;48.158;8.634;2023-06-14T02:24:00;6.50;99.90
21481;DHT22;10902;48.158;8.634;2023-06-14T02:26:47;6.50;99.90
21481;DHT22;10902;48.158;8.634;2023-06-14T02:29:32;6.60;99.90
21481;DHT22;10902;48.158;8.634;2023-06-14T02:32:18;6.50;99.90
21481;DHT22;10902;48.158;8.634;2023-06-14T02:35:04;6.40;99.90
21481;DHT22;10902;48.158;8.634;2023-06-14T02:37:49;6.50;99.90
21481;DHT22;10902;48.158;8.634;2023-06-14T02:40:36;6.30;99.90
21481;DHT22;10902;48.158;8.634;2023-06-14T02:43:22;6.30;99.90
21481;DHT22;10902;48.158;8.634;2023-06-14T02:46:07;6.50;99.90
21481;DHT22;10902;48.158;8.634;2023-06-14T02:48:53;6.60;99.90
21481;DHT22;10902;48.158;8.634;2023-06-14T02:51:38;6.70;99.90
21481;DHT22;10902;48.158;8.634;2023-06-14T02:54:24;6.70;99.90
21481;DHT22;10902;48.158;8.634;2023-06-14T02:57:09;6.70;99.90
21481;DHT22;10902;48.158;8.634;2023-06-14T02:59:56;6.70;99.90
21481;DHT22;10902;48.158;8.634;2023-06-14T03:02:41;6.60;99.90
21481;DHT22;10902;48.158;8.634;2023-06-14T03:05:28;6.50;99.90
21481;DHT22;10902;48.158;8.634;2023-06-14T03:08:13;6.60;99.90
21481;DHT22;10902;48.158;8.634;2023-06-14T03:11:02;6.70;99.90
21481;DHT22;10902;48.158;8.634;2023-06-14T03:13:47;6.70;99.90
21481;DHT22;10902;48.158;8.634;2023-06-14T03:16:33;6.60;99.90
21481;DHT22;10902;48.158;8.634;2023-06-14T03:19:19;6.70;99.90
21481;DHT22;10902;48.158;8.634;2023-06-14T03:22:04;6.60;99.90
21481;DHT22;10902;48.158;8.634;2023-06-14T03:24:50;6.40;99.90
21481;DHT22;10902;48.158;8.634;2023-06-14T03:27:37;6.40;99.90
21481;DHT22;10902;48.158;8.634;2023-06-14T03:30:23;6.40;99.90
21481;DHT22;10902;48.158;8.634;2023-06-14T03:33:09;6.40;99.90
21481;DHT22;10902;48.158;8.634;2023-06-14T03:35:54;6.40;99.90
21481;DHT22;10902;48.158;8.634;2023-06-14T03:38:41;6.50;99.90
21481;DHT22;10902;48.158;8.634;2023-06-14T03:41:27;6.40;99.90
21481;DHT22;10902;48.158;8.634;2023-06-14T03:44:15;6.40;99.90
21481;DHT22;10902;48.158;8.634;2023-06-14T03:47:01;6.40;99.90
21481;DHT22;10902;48.158;8.634;2023-06-14T03:49:46;6.30;99.90
21481;DHT22;10902;48.158;8.634;2023-06-14T03:52:32;6.30;99.90
21481;DHT22;10902;48.158;8.634;2023-06-14T03:55:18;6.30;99.90
21481;DHT22;10902;48.158;8.634;2023-06-14T03:58:04;6.40;99.90
21481;DHT22;10902;48.158;8.634;2023-06-14T04:00:50;6.40;99.90
21481;DHT22;10902;48.158;8.634;2023-06-14T04:03:35;6.40;99.90
21481;DHT22;10902;48.158;8.634;2023-06-14T04:06:21;6.40;99.90
21481;DHT22;10902;48.158;8.634;2023-06-14T04:09:07;6.30;99.90
21481;DHT22;10902;48.158;8.634;2023-06-14T04:11:53;6.30;99.90
21481;DHT22;10902;48.158;8.634;2023-06-14T04:14:39;6.30;99.90
21481;DHT22;10902;48.158;8.634;2023-06-14T04:17:25;6.30;99.90
21481;DHT22;10902;48.158;8.634;2023-06-14T04:20:11;6.30;99.90
21481;DHT22;10902;48.158;8.634;2023-06-14T04:22:57;6.30;99.90
21481;DHT22;10902;48.158;8.634;2023-06-14T04:25:43;6.40;99.90
21481;DHT22;10902;48.158;8.634;2023-06-14T04:28:30;6.40;99.90
21481;DHT22;10902;48.158;8.634;2023-06-14T04:31:16;6.50;99.90
21481;DHT22;10902;48.158;8.634;2023-06-14T04:34:01;6.60;99.90
21481;DHT22;10902;48.158;8.634;2023-06-14T04:36:51;6.80;99.90
21481;DHT22;10902;48.158;8.634;2023-06-14T04:39:38;6.80;99.90
21481;DHT22;10902;48.158;8.634;2023-06-14T04:42:24;6.80;99.90
21481;DHT22;10902;48.158;8.634;2023-06-14T04:45:16;6.90;99.90
21481;DHT22;10902;48.158;8.634;2023-06-14T04:48:02;7.00;99.90
21481;DHT22;10902;48.158;8.634;2023-06-14T04:50:47;7.20;99.90
21481;DHT22;10902;48.158;8.634;2023-06-14T04:53:33;7.20;99.90
21481;DHT22;10902;48.158;8.634;2023-06-14T04:56:19;7.20;99.90
21481;DHT22;10902;48.158;8.634;2023-06-14T04:59:05;7.30;99.90
21481;DHT22;10902;48.158;8.634;2023-06-14T05:01:51;7.40;99.90
21481;DHT22;10902;48.158;8.634;2023-06-14T05:04:37;7.50;99.90
21481;DHT22;10902;48.158;8.634;2023-06-14T05:07:25;7.50;99.90
21481;DHT22;10902;48.158;8.634;2023-06-14T05:10:10;7.70;99.90
21481;DHT22;10902;48.158;8.634;2023-06-14T05:12:56;7.90;99.90
21481;DHT22;10902;48.158;8.634;2023-06-14T05:15:41;8.10;99.90
21481;DHT22;10902;48.158;8.634;2023-06-14T05:18:27;8.10;99.90
21481;DHT22;10902;48.158;8.634;2023-06-14T05:21:13;8.30;99.90
21481;DHT22;10902;48.158;8.634;2023-06-14T05:24:03;8.40;99.90
21481;DHT22;10902;48.158;8.634;2023-06-14T05:26:49;8.60;99.90
21481;DHT22;10902;48.158;8.634;2023-06-14T05:29:34;8.70;99.90
21481;DHT22;10902;48.158;8.634;2023-06-14T05:32:20;9.00;99.90
21481;DHT22;10902;48.158;8.634;2023-06-14T05:35:06;9.10;99.90
21481;DHT22;10902;48.158;8.634;2023-06-14T05:37:52;9.30;99.90
21481;DHT22;10902;48.158;8.634;2023-06-14T05:40:39;9.40;99.90
21481;DHT22;10902;48.158;8.634;2023-06-14T05:43:24;9.60;99.90
21481;DHT22;10902;48.158;8.634;2023-06-14T05:46:10;9.60;99.90
21481;DHT22;10902;48.158;8.634;2023-06-14T05:48:56;9.70;99.90
21481;DHT22;10902;48.158;8.634;2023-06-14T05:51:41;9.90;99.90
21481;DHT22;10902;48.158;8.634;2023-06-14T05:54:27;10.00;99.90
21481;DHT22;10902;48.158;8.634;2023-06-14T05:57:12;10.10;99.90
21481;DHT22;10902;48.158;8.634;2023-06-14T05:59:58;10.20;99.90
21481;DHT22;10902;48.158;8.634;2023-06-14T06:02:44;10.40;99.90
21481;DHT22;10902;48.158;8.634;2023-06-14T06:05:30;10.60;99.90
21481;DHT22;10902;48.158;8.634;2023-06-14T06:08:16;10.90;99.90
21481;DHT22;10902;48.158;8.634;2023-06-14T06:11:02;11.10;99.90
21481;DHT22;10902;48.158;8.634;2023-06-14T06:13:48;11.20;99.90
21481;DHT22;10902;48.158;8.634;2023-06-14T06:16:33;11.50;99.90
21481;DHT22;10902;48.158;8.634;2023-06-14T06:19:19;11.70;99.90
21481;DHT22;10902;48.158;8.634;2023-06-14T06:22:05;12.00;99.90
21481;DHT22;10902;48.158;8.634;2023-06-14T06:24:51;12.20;99.90
21481;DHT22;10902;48.158;8.634;2023-06-14T06:27:37;12.40;99.90
21481;DHT22;10902;48.158;8.634;2023-06-14T06:30:23;12.60;99.90
21481;DHT22;10902;48.158;8.634;2023-06-14T06:33:09;12.80;99.90
21481;DHT22;10902;48.158;8.634;2023-06-14T06:35:54;13.20;99.90
21481;DHT22;10902;48.158;8.634;2023-06-14T06:38:40;13.60;99.90
21481;DHT22;10902;48.158;8.634;2023-06-14T06:41:26;13.80;99.90
21481;DHT22;10902;48.158;8.634;2023-06-14T06:44:12;14.10;99.90
21481;DHT22;10902;48.158;8.634;2023-06-14T06:46:58;14.40;99.90
21481;DHT22;10902;48.158;8.634;2023-06-14T06:49:43;14.70;99.90
21481;DHT22;10902;48.158;8.634;2023-06-14T06:52:29;14.70;99.90
21481;DHT22;10902;48.158;8.634;2023-06-14T06:55:14;14.80;99.90
21481;DHT22;10902;48.158;8.634;2023-06-14T06:58:00;14.80;99.90
21481;DHT22;10902;48.158;8.634;2023-06-14T07:00:46;14.90;99.90
21481;DHT22;10902;48.158;8.634;2023-06-14T07:03:31;15.10;99.90
21481;DHT22;10902;48.158;8.634;2023-06-14T07:06:17;15.40;99.90
21481;DHT22;10902;48.158;8.634;2023-06-14T07:09:04;15.60;99.90
21481;DHT22;10902;48.158;8.634;2023-06-14T07:11:53;15.70;99.90
21481;DHT22;10902;48.158;8.634;2023-06-14T07:14:38;15.90;99.90
21481;DHT22;10902;48.158;8.634;2023-06-14T07:17:24;16.10;99.90
21481;DHT22;10902;48.158;8.634;2023-06-14T07:20:10;16.20;99.90
21481;DHT22;10902;48.158;8.634;2023-06-14T07:22:59;16.30;99.90
21481;DHT22;10902;48.158;8.634;2023-06-14T07:25:44;16.50;99.90
21481;DHT22;10902;48.158;8.634;2023-06-14T07:28:30;16.60;99.90
21481;DHT22;10902;48.158;8.634;2023-06-14T07:31:16;16.70;99.90
21481;DHT22;10902;48.158;8.634;2023-06-14T07:34:01;16.80;99.90
21481;DHT22;10902;48.158;8.634;2023-06-14T07:36:47;16.90;99.90
21481;DHT22;10902;48.158;8.634;2023-06-14T07:39:34;17.10;99.90
21481;DHT22;10902;48.158;8.634;2023-06-14T07:42:19;17.10;99.90
21481;DHT22;10902;48.158;8.634;2023-06-14T07:45:05;17.30;99.90
21481;DHT22;10902;48.158;8.634;2023-06-14T07:47:51;17.40;99.90
21481;DHT22;10902;48.158;8.634;2023-06-14T07:50:37;17.60;99.90
21481;DHT22;10902;48.158;8.634;2023-06-14T07:53:23;17.70;99.90
21481;DHT22;10902;48.158;8.634;2023-06-14T07:56:08;17.80;99.90
21481;DHT22;10902;48.158;8.634;2023-06-14T07:58:54;18.00;99.90
21481;DHT22;10902;48.158;8.634;2023-06-14T08:01:40;18.10;99.90
21481;DHT22;10902;48.158;8.634;2023-06-14T08:04:25;18.30;99.90
21481;DHT22;10902;48.158;8.634;2023-06-14T08:07:11;18.30;99.90
21481;DHT22;10902;48.158;8.634;2023-06-14T08:09:57;18.40;99.90
21481;DHT22;10902;48.158;8.634;2023-06-14T08:12:43;18.60;99.90
21481;DHT22;10902;48.158;8.634;2023-06-14T08:15:28;18.80;99.90
21481;DHT22;10902;48.158;8.634;2023-06-14T08:18:14;18.80;99.90
21481;DHT22;10902;48.158;8.634;2023-06-14T08:21:00;18.90;99.90
21481;DHT22;10902;48.158;8.634;2023-06-14T08:23:45;19.00;99.90
21481;DHT22;10902;48.158;8.634;2023-06-14T08:26:31;19.20;99.90
21481;DHT22;10902;48.158;8.634;2023-06-14T08:29:17;19.40;99.90
21481;DHT22;10902;48.158;8.634;2023-06-14T08:32:03;19.50;99.90
21481;DHT22;10902;48.158;8.634;2023-06-14T08:34:48;19.50;99.90
21481;DHT22;10902;48.158;8.634;2023-06-14T08:37:38;19.70;99.90
21481;DHT22;10902;48.158;8.634;2023-06-14T08:40:26;19.70;99.90
21481;DHT22;10902;48.158;8.634;2023-06-14T08:43:12;19.90;99.90
21481;DHT22;10902;48.158;8.634;2023-06-14T08:46:00;20.10;99.90
21481;DHT22;10902;48.158;8.634;2023-06-14T08:48:50;20.20;99.90
21481;DHT22;10902;48.158;8.634;2023-06-14T08:51:37;20.10;99.90
21481;DHT22;10902;48.158;8.634;2023-06-14T08:54:23;20.50;99.90
21481;DHT22;10902;48.158;8.634;2023-06-14T08:57:12;20.60;99.90
21481;DHT22;10902;48.158;8.634;2023-06-14T09:00:02;20.80;99.90
21481;DHT22;10902;48.158;8.634;2023-06-14T09:02:55;20.90;99.90
21481;DHT22;10902;48.158;8.634;2023-06-14T09:05:43;21.30;99.90
21481;DHT22;10902;48.158;8.634;2023-06-14T09:08:30;21.60;99.90
21481;DHT22;10902;48.158;8.634;2023-06-14T09:11:18;22.20;99.90
21481;DHT22;10902;48.158;8.634;2023-06-14T09:14:04;22.50;99.90
21481;DHT22;10902;48.158;8.634;2023-06-14T09:16:54;22.30;99.90
21481;DHT22;10902;48.158;8.634;2023-06-14T09:19:40;22.60;99.90
21481;DHT22;10902;48.158;8.634;2023-06-14T09:22:29;22.60;99.90
21481;DHT22;10902;48.158;8.634;2023-06-14T09:25:15;22.80;99.20
21481;DHT22;10902;48.158;8.634;2023-06-14T09:28:01;23.20;98.80
21481;DHT22;10902;48.158;8.634;2023-06-14T09:30:46;23.90;98.60
21481;DHT22;10902;48.158;8.634;2023-06-14T09:33:32;23.80;98.30
21481;DHT22;10902;48.158;8.634;2023-06-14T09:36:21;23.60;98.70
21481;DHT22;10902;48.158;8.634;2023-06-14T09:39:07;23.40;97.60
21481;DHT22;10902;48.158;8.634;2023-06-14T09:41:53;23.60;98.20
21481;DHT22;10902;48.158;8.634;2023-06-14T09:44:39;24.30;97.70
21481;DHT22;10902;48.158;8.634;2023-06-14T09:47:24;24.00;97.80
21481;DHT22;10902;48.158;8.634;2023-06-14T09:50:10;23.90;97.60
21481;DHT22;10902;48.158;8.634;2023-06-14T09:53:03;23.80;97.30
21481;DHT22;10902;48.158;8.634;2023-06-14T09:55:49;24.50;97.30
21481;DHT22;10902;48.158;8.634;2023-06-14T09:58:39;24.70;96.10
21481;DHT22;10902;48.158;8.634;2023-06-14T10:01:28;25.10;94.30
21481;DHT22;10902;48.158;8.634;2023-06-14T10:04:15;25.40;94.40
21481;DHT22;10902;48.158;8.634;2023-06-14T10:07:04;25.50;95.00
21481;DHT22;10902;48.158;8.634;2023-06-14T10:09:51;25.10;93.20
21481;DHT22;10902;48.158;8.634;2023-06-14T10:12:38;24.80;94.60
21481;DHT22;10902;48.158;8.634;2023-06-14T10:15:32;25.20;95.10
21481;DHT22;10902;48.158;8.634;2023-06-14T10:21:16;24.00;94.70
21481;DHT22;10902;48.158;8.634;2023-06-14T10:24:07;24.70;95.30
21481;DHT22;10902;48.158;8.634;2023-06-14T10:26:55;24.60;94.90
21481;DHT22;10902;48.158;8.634;2023-06-14T10:30:07;24.90;94.60
21481;DHT22;10902;48.158;8.634;2023-06-14T10:33:06;25.10;94.70
21481;DHT22;10902;48.158;8.634;2023-06-14T10:36:10;25.10;94.70
21481;DHT22;10902;48.158;8.634;2023-06-14T10:39:17;25.70;94.70
21481;DHT22;10902;48.158;8.634;2023-06-14T10:42:03;25.80;94.30
21481;DHT22;10902;48.158;8.634;2023-06-14T10:44:51;25.20;94.30
21481;DHT22;10902;48.158;8.634;2023-06-14T10:47:37;25.10;95.00
21481;DHT22;10902;48.158;8.634;2023-06-14T10:50:28;25.30;95.00
21481;DHT22;10902;48.158;8.634;2023-06-14T10:53:24;25.80;94.80
21481;DHT22;10902;48.158;8.634;2023-06-14T10:56:25;26.30;94.40
21481;DHT22;10902;48.158;8.634;2023-06-14T10:59:11;26.00;93.20
21481;DHT22;10902;48.158;8.634;2023-06-14T11:05:08;25.60;93.40
21481;DHT22;10902;48.158;8.634;2023-06-14T11:10:54;25.90;92.20
21481;DHT22;10902;48.158;8.634;2023-06-14T11:13:44;25.80;92.20
21481;DHT22;10902;48.158;8.634;2023-06-14T11:16:30;25.90;92.20
21481;DHT22;10902;48.158;8.634;2023-06-14T11:19:18;26.00;91.40
21481;DHT22;10902;48.158;8.634;2023-06-14T11:22:05;25.90;91.50
21481;DHT22;10902;48.158;8.634;2023-06-14T11:24:50;26.00;91.40
21481;DHT22;10902;48.158;8.634;2023-06-14T11:27:36;26.50;91.30
21481;DHT22;10902;48.158;8.634;2023-06-14T11:30:22;26.60;91.00
21481;DHT22;10902;48.158;8.634;2023-06-14T11:33:10;26.40;91.10
21481;DHT22;10902;48.158;8.634;2023-06-14T11:35:56;26.90;91.00
21481;DHT22;10902;48.158;8.634;2023-06-14T11:38:42;26.50;90.80
21481;DHT22;10902;48.158;8.634;2023-06-14T11:44:24;27.20;90.10
21481;DHT22;10902;48.158;8.634;2023-06-14T11:47:10;27.50;90.00
21481;DHT22;10902;48.158;8.634;2023-06-14T11:49:55;27.50;89.90
21481;DHT22;10902;48.158;8.634;2023-06-14T11:52:43;27.10;89.90
21481;DHT22;10902;48.158;8.634;2023-06-14T11:55:29;26.80;90.20
21481;DHT22;10902;48.158;8.634;2023-06-14T11:58:14;27.30;89.10
21481;DHT22;10902;48.158;8.634;2023-06-14T12:01:03;27.20;88.50
21481;DHT22;10902;48.158;8.634;2023-06-14T12:03:53;27.70;88.30
21481;DHT22;10902;48.158;8.634;2023-06-14T12:06:39;28.40;86.50
21481;DHT22;10902;48.158;8.634;2023-06-14T12:09:25;28.60;85.60
21481;DHT22;10902;48.158;8.634;2023-06-14T12:12:12;28.40;85.70
21481;DHT22;10902;48.158;8.634;2023-06-14T12:14:58;28.20;86.10
21481;DHT22;10902;48.158;8.634;2023-06-14T12:17:44;28.30;85.70
21481;DHT22;10902;48.158;8.634;2023-06-14T12:20:30;29.20;84.20
21481;DHT22;10902;48.158;8.634;2023-06-14T12:23:16;29.10;83.60
21481;DHT22;10902;48.158;8.634;2023-06-14T12:26:03;29.00;83.40
21481;DHT22;10902;48.158;8.634;2023-06-14T12:28:52;29.60;83.30
21481;DHT22;10902;48.158;8.634;2023-06-14T12:31:37;29.60;81.00
21481;DHT22;10902;48.158;8.634;2023-06-14T12:34:29;29.20;81.50
21481;DHT22;10902;48.158;8.634;2023-06-14T12:37:16;29.80;81.20
21481;DHT22;10902;48.158;8.634;2023-06-14T12:40:02;30.40;80.00
21481;DHT22;10902;48.158;8.634;2023-06-14T12:42:51;29.20;80.60
21481;DHT22;10902;48.158;8.634;2023-06-14T12:45:37;28.90;80.10
21481;DHT22;10902;48.158;8.634;2023-06-14T12:48:22;29.60;79.70
21481;DHT22;10902;48.158;8.634;2023-06-14T12:51:08;30.40;79.10
21481;DHT22;10902;48.158;8.634;2023-06-14T12:53:54;30.30;77.90
21481;DHT22;10902;48.158;8.634;2023-06-14T12:56:39;30.50;78.50
21481;DHT22;10902;48.158;8.634;2023-06-14T12:59:27;30.20;78.70
21481;DHT22;10902;48.158;8.634;2023-06-14T13:02:19;30.00;77.50
21481;DHT22;10902;48.158;8.634;2023-06-14T13:05:07;30.80;78.50
21481;DHT22;10902;48.158;8.634;2023-06-14T13:07:53;31.40;76.60
21481;DHT22;10902;48.158;8.634;2023-06-14T13:10:38;30.90;77.60
21481;DHT22;10902;48.158;8.634;2023-06-14T13:13:24;30.10;77.50
21481;DHT22;10902;48.158;8.634;2023-06-14T13:16:10;30.30;77.00
21481;DHT22;10902;48.158;8.634;2023-06-14T13:18:56;31.10;77.30
21481;DHT22;10902;48.158;8.634;2023-06-14T13:21:42;31.30;77.00
21481;DHT22;10902;48.158;8.634;2023-06-14T13:24:27;31.60;77.00
21481;DHT22;10902;48.158;8.634;2023-06-14T13:27:15;30.70;75.00
21481;DHT22;10902;48.158;8.634;2023-06-14T13:30:01;29.20;76.60
21481;DHT22;10902;48.158;8.634;2023-06-14T13:32:47;29.30;77.20
21481;DHT22;10902;48.158;8.634;2023-06-14T13:35:33;30.50;76.80
21481;DHT22;10902;48.158;8.634;2023-06-14T13:38:18;30.80;75.60
21481;DHT22;10902;48.158;8.634;2023-06-14T13:41:04;31.10;74.80
21481;DHT22;10902;48.158;8.634;2023-06-14T13:43:50;31.00;74.10
21481;DHT22;10902;48.158;8.634;2023-06-14T13:46:35;31.50;73.60
21481;DHT22;10902;48.158;8.634;2023-06-14T13:49:21;32.60;73.50
21481;DHT22;10902;48.158;8.634;2023-06-14T13:52:07;33.30;70.90
21481;DHT22;10902;48.158;8.634;2023-06-14T13:54:52;33.10;71.60
21481;DHT22;10902;48.158;8.634;2023-06-14T13:57:38;32.90;71.30
21481;DHT22;10902;48.158;8.634;2023-06-14T14:00:24;32.60;71.20
21481;DHT22;10902;48.158;8.634;2023-06-14T14:03:10;32.40;70.30
21481;DHT22;10902;48.158;8.634;2023-06-14T14:05:56;32.10;71.60
21481;DHT22;10902;48.158;8.634;2023-06-14T14:08:42;32.60;71.30
21481;DHT22;10902;48.158;8.634;2023-06-14T14:11:28;32.60;69.60
21481;DHT22;10902;48.158;8.634;2023-06-14T14:14:13;32.90;69.10
21481;DHT22;10902;48.158;8.634;2023-06-14T14:16:59;33.70;68.30
21481;DHT22;10902;48.158;8.634;2023-06-14T14:19:44;33.20;67.00
21481;DHT22;10902;48.158;8.634;2023-06-14T14:22:30;33.60;67.10
21481;DHT22;10902;48.158;8.634;2023-06-14T14:25:15;33.60;65.70
21481;DHT22;10902;48.158;8.634;2023-06-14T14:28:01;33.60;65.90
21481;DHT22;10902;48.158;8.634;2023-06-14T14:30:47;35.00;65.90
21481;DHT22;10902;48.158;8.634;2023-06-14T14:33:33;34.20;66.30
21481;DHT22;10902;48.158;8.634;2023-06-14T14:36:20;33.90;67.30
21481;DHT22;10902;48.158;8.634;2023-06-14T14:39:05;32.80;67.40
21481;DHT22;10902;48.158;8.634;2023-06-14T14:41:52;32.00;68.40
21481;DHT22;10902;48.158;8.634;2023-06-14T14:44:38;31.40;67.40
21481;DHT22;10902;48.158;8.634;2023-06-14T14:47:23;31.50;67.30
21481;DHT22;10902;48.158;8.634;2023-06-14T14:50:09;32.60;67.50
21481;DHT22;10902;48.158;8.634;2023-06-14T14:52:55;33.00;67.80
21481;DHT22;10902;48.158;8.634;2023-06-14T14:55:42;32.00;67.10
21481;DHT22;10902;48.158;8.634;2023-06-14T14:58:28;31.90;67.40
21481;DHT22;10902;48.158;8.634;2023-06-14T15:01:13;32.90;66.70
21481;DHT22;10902;48.158;8.634;2023-06-14T15:03:59;32.50;66.20
21481;DHT22;10902;48.158;8.634;2023-06-14T15:06:44;32.40;65.40
21481;DHT22;10902;48.158;8.634;2023-06-14T15:09:30;33.40;65.10
21481;DHT22;10902;48.158;8.634;2023-06-14T15:12:16;32.90;64.90
21481;DHT22;10902;48.158;8.634;2023-06-14T15:15:02;33.60;65.90
21481;DHT22;10902;48.158;8.634;2023-06-14T15:17:48;32.90;65.10
21481;DHT22;10902;48.158;8.634;2023-06-14T15:20:33;31.90;66.30
21481;DHT22;10902;48.158;8.634;2023-06-14T15:23:19;31.60;67.20
21481;DHT22;10902;48.158;8.634;2023-06-14T15:26:05;31.00;67.90
21481;DHT22;10902;48.158;8.634;2023-06-14T15:28:51;30.40;68.30
21481;DHT22;10902;48.158;8.634;2023-06-14T15:31:36;30.20;68.30
21481;DHT22;10902;48.158;8.634;2023-06-14T15:34:22;30.60;67.50
21481;DHT22;10902;48.158;8.634;2023-06-14T15:37:07;30.60;65.80
21481;DHT22;10902;48.158;8.634;2023-06-14T15:39:53;31.00;67.30
21481;DHT22;10902;48.158;8.634;2023-06-14T15:42:39;31.90;65.70
21481;DHT22;10902;48.158;8.634;2023-06-14T15:45:25;31.20;66.70
21481;DHT22;10902;48.158;8.634;2023-06-14T15:48:10;29.50;67.30
21481;DHT22;10902;48.158;8.634;2023-06-14T15:50:56;29.40;67.70
21481;DHT22;10902;48.158;8.634;2023-06-14T15:53:41;29.40;67.50
21481;DHT22;10902;48.158;8.634;2023-06-14T15:56:27;31.60;67.00
21481;DHT22;10902;48.158;8.634;2023-06-14T15:59:13;31.40;66.60
21481;DHT22;10902;48.158;8.634;2023-06-14T16:01:58;30.80;66.30
21481;DHT22;10902;48.158;8.634;2023-06-14T16:04:44;30.90;66.00
21481;DHT22;10902;48.158;8.634;2023-06-14T16:07:29;30.50;65.90
21481;DHT22;10902;48.158;8.634;2023-06-14T16:10:15;30.90;65.80
21481;DHT22;10902;48.158;8.634;2023-06-14T16:13:01;31.40;66.40
21481;DHT22;10902;48.158;8.634;2023-06-14T16:15:46;31.80;66.60
21481;DHT22;10902;48.158;8.634;2023-06-14T16:18:32;31.10;65.70
21481;DHT22;10902;48.158;8.634;2023-06-14T16:21:17;31.40;67.40
21481;DHT22;10902;48.158;8.634;2023-06-14T16:24:04;31.90;65.60
21481;DHT22;10902;48.158;8.634;2023-06-14T16:26:49;31.00;65.60
21481;DHT22;10902;48.158;8.634;2023-06-14T16:29:36;30.90;66.80
21481;DHT22;10902;48.158;8.634;2023-06-14T16:32:21;30.90;67.70
21481;DHT22;10902;48.158;8.634;2023-06-14T16:35:07;31.80;68.00
21481;DHT22;10902;48.158;8.634;2023-06-14T16:37:53;31.20;68.00
21481;DHT22;10902;48.158;8.634;2023-06-14T16:40:38;31.30;68.10
21481;DHT22;10902;48.158;8.634;2023-06-14T16:43:24;30.10;69.40
21481;DHT22;10902;48.158;8.634;2023-06-14T16:46:09;29.40;69.80
21481;DHT22;10902;48.158;8.634;2023-06-14T16:48:57;28.80;70.20
21481;DHT22;10902;48.158;8.634;2023-06-14T16:51:43;29.10;70.50
21481;DHT22;10902;48.158;8.634;2023-06-14T16:54:28;29.00;70.40
21481;DHT22;10902;48.158;8.634;2023-06-14T16:57:14;28.80;71.00
21481;DHT22;10902;48.158;8.634;2023-06-14T17:00:00;28.70;71.20
21481;DHT22;10902;48.158;8.634;2023-06-14T17:02:46;28.40;71.80
21481;DHT22;10902;48.158;8.634;2023-06-14T17:05:32;28.60;71.80
21481;DHT22;10902;48.158;8.634;2023-06-14T17:08:17;28.70;72.60
21481;DHT22;10902;48.158;8.634;2023-06-14T17:11:03;28.20;72.70
21481;DHT22;10902;48.158;8.634;2023-06-14T17:13:50;28.10;72.80
21481;DHT22;10902;48.158;8.634;2023-06-14T17:16:35;27.80;73.10
21481;DHT22;10902;48.158;8.634;2023-06-14T17:19:21;27.60;73.60
21481;DHT22;10902;48.158;8.634;2023-06-14T17:22:06;27.10;74.60
21481;DHT22;10902;48.158;8.634;2023-06-14T17:24:52;26.60;74.30
21481;DHT22;10902;48.158;8.634;2023-06-14T17:27:38;25.70;75.90
21481;DHT22;10902;48.158;8.634;2023-06-14T17:30:24;26.40;75.60
21481;DHT22;10902;48.158;8.634;2023-06-14T17:33:09;26.20;75.60
21481;DHT22;10902;48.158;8.634;2023-06-14T17:35:55;26.40;75.90
21481;DHT22;10902;48.158;8.634;2023-06-14T17:38:41;26.20;76.10
21481;DHT22;10902;48.158;8.634;2023-06-14T17:41:26;26.70;75.10
21481;DHT22;10902;48.158;8.634;2023-06-14T17:44:12;26.90;74.60
21481;DHT22;10902;48.158;8.634;2023-06-14T17:46:57;27.20;74.80
21481;DHT22;10902;48.158;8.634;2023-06-14T17:49:43;27.20;75.00